Time;durP1;ratioP1;P1;durP2;ratioP2;P2;SDS_P1;SDS_P2;PMS_P1;PMS_P2;Temp;Humidity;BMP_temperature;BMP_pressure;BME280_temperature;BME280_humidity;BME280_pressure;Samples;Min_cycle;Max_cycle;Signal;HPM_P1;HPM_P2
2021/12/06 00:00:30;;;;;;;;;;;;;;;14.83;68.24;100919.75;1045833;28;776;-71
2021/12/06 00:01:21;;;;;;;;;;;;;;;14.83;68.68;100915.25;1045958;28;644;-70
2021/12/06 00:02:11;;;;;;;;;;;;;;;14.81;68.37;100917.19;1045822;28;704;-70
2021/12/06 00:03:02;;;;;;;;;;;;;;;14.81;68.23;100916.34;1045769;28;700;-70
2021/12/06 00:03:52;;;;;;;;;;;;;;;14.80;68.57;100915.47;1045744;28;786;-69
2021/12/06 00:04:43;;;;;;;;;;;;;;;14.80;68.86;100920.84;1045642;28;1202;-69
2021/12/06 00:05:33;;;;;;;;;;;;;;;14.79;68.94;100919.13;1048770;28;1242;-75
2021/12/06 00:06:24;;;;;;;;;;;;;;;14.79;68.15;100919.13;1049583;28;812;-75
2021/12/06 00:07:14;;;;;;;;;;;;;;;14.79;68.67;100920.97;1045824;28;700;-75
2021/12/06 00:08:05;;;;;;;;;;;;;;;14.78;68.17;100917.44;1045745;28;921;-75
2021/12/06 00:08:55;;;;;;;;;;;;;;;14.77;68.50;100918.41;1045819;28;848;-75
2021/12/06 00:09:46;;;;;;;;;;;;;;;14.77;68.85;100926.47;1045704;28;680;-75
2021/12/06 00:10:36;;;;;;;;;;;;;;;14.76;68.90;100919.38;1045542;28;1296;-75
2021/12/06 00:11:26;;;;;;;;;;;;;;;14.76;68.68;100924.75;1045758;28;692;-74
2021/12/06 00:12:17;;;;;;;;;;;;;;;14.76;68.57;100919.38;1046272;28;1950;-75
2021/12/06 00:13:07;;;;;;;;;;;;;;;14.75;68.98;100920.34;1048782;28;755;-75
2021/12/06 00:13:58;;;;;;;;;;;;;;;14.75;68.79;100923.03;1048961;28;677;-75
2021/12/06 00:14:48;;;;;;;;;;;;;;;14.75;68.73;100922.19;1048447;28;648;-75
2021/12/06 00:15:39;;;;;;;;;;;;;;;14.74;68.65;100934.75;1048713;28;665;-75
2021/12/06 00:16:29;;;;;;;;;;;;;;;14.73;68.58;100927.69;1048801;28;920;-75
2021/12/06 00:17:20;;;;;;;;;;;;;;;14.73;69.01;100934.88;1048514;28;1880;-75
2021/12/06 00:18:10;;;;;;;;;;;;;;;14.73;68.98;100935.72;1044838;28;874;-75
2021/12/06 00:19:00;;;;;;;;;;;;;;;14.73;68.84;100935.72;1045362;28;1972;-75
2021/12/06 00:19:51;;;;;;;;;;;;;;;14.73;68.88;100938.41;1049207;28;605;-75
2021/12/06 00:20:41;;;;;;;;;;;;;;;14.72;68.84;100935.84;1048320;28;985;-75
2021/12/06 00:21:32;;;;;;;;;;;;;;;14.71;68.29;100937.69;1044946;28;677;-75
2021/12/06 00:22:23;;;;;;;;;;;;;;;14.71;68.60;100936.81;1045425;28;737;-75
2021/12/06 00:23:13;;;;;;;;;;;;;;;14.70;68.33;100935.97;1049866;28;725;-75
2021/12/06 00:24:03;;;;;;;;;;;;;;;14.70;68.60;100935.97;1049396;28;650;-72
2021/12/06 00:24:54;;;;;;;;;;;;;;;14.70;68.42;100938.66;1048459;28;2132;-75
2021/12/06 00:25:44;;;;;;;;;;;;;;;14.69;68.76;100945.00;1050333;28;784;-74
2021/12/06 00:26:35;;;;;;;;;;;;;;;14.69;68.84;100942.31;1049411;28;797;-74
2021/12/06 00:27:25;;;;;;;;;;;;;;;14.69;68.46;100945.00;1049686;28;692;-71
2021/12/06 00:28:16;;;;;;;;;;;;;;;14.69;68.53;100945.00;1049477;28;701;-72
2021/12/06 00:29:06;;;;;;;;;;;;;;;14.68;68.90;100947.81;1049276;28;1995;-72
2021/12/06 00:29:57;;;;;;;;;;;;;;;14.67;68.63;100952.34;1049567;28;654;-72
2021/12/06 00:30:47;;;;;;;;;;;;;;;14.67;68.42;100957.69;1049304;28;844;-72
2021/12/06 00:31:38;;;;;;;;;;;;;;;14.67;68.73;100955.03;1054585;28;735;-73
2021/12/06 00:32:28;;;;;;;;;;;;;;;14.67;68.46;100951.47;1054677;28;656;-72
2021/12/06 00:33:18;;;;;;;;;;;;;;;14.65;68.41;100962.31;1047519;28;815;-71
2021/12/06 00:34:13;;;;;;;;;;;;;;;14.65;68.91;100961.47;1046959;28;723;-71
2021/12/06 00:35:03;;;;;;;;;;;;;;;14.66;68.46;100963.19;1050522;28;763;-71
2021/12/06 00:36:03;;;;;;;;;;;;;;;14.65;68.17;100966.84;1049408;28;951;-72
2021/12/06 00:37:15;;;;;;;;;;;;;;;14.64;68.80;100975.84;1049408;28;1883;-72
2021/12/06 00:38:06;;;;;;;;;;;;;;;14.63;68.57;100972.31;1050038;28;865;-72
2021/12/06 00:38:56;;;;;;;;;;;;;;;14.63;68.46;100971.47;1049443;28;1948;-72
2021/12/06 00:39:46;;;;;;;;;;;;;;;14.63;68.44;100974.16;1049379;28;685;-72
2021/12/06 00:40:37;;;;;;;;;;;;;;;14.62;68.20;100975.97;1049510;28;803;-72
2021/12/06 00:41:27;;;;;;;;;;;;;;;14.60;68.95;100969.88;1049307;28;898;-72
2021/12/06 00:42:18;;;;;;;;;;;;;;;14.60;68.13;100972.56;1049495;28;633;-72
2021/12/06 00:43:08;;;;;;;;;;;;;;;14.61;68.57;100965.38;1049619;28;681;-74
2021/12/06 00:44:00;;;;;;;;;;;;;;;14.60;68.32;100972.56;1049479;28;906;-74
2021/12/06 00:44:50;;;;;;;;;;;;;;;14.59;68.52;100971.72;1049520;28;661;-73
2021/12/06 00:45:40;;;;;;;;;;;;;;;14.60;68.87;100969.88;1049267;28;712;-72
2021/12/06 00:46:31;;;;;;;;;;;;;;;14.59;68.46;100968.16;1049482;28;1617;-72
2021/12/06 00:47:21;;;;;;;;;;;;;;;14.59;68.42;100970.84;1049875;28;1912;-72
2021/12/06 00:48:12;;;;;;;;;;;;;;;14.59;68.23;100973.53;1050104;28;691;-72
2021/12/06 00:49:02;;;;;;;;;;;;;;;14.58;68.62;100980.72;1049970;28;693;-71
2021/12/06 00:49:53;;;;;;;;;;;;;;;14.57;68.91;100967.44;1049395;28;870;-72
2021/12/06 00:50:43;;;;;;;;;;;;;;;14.57;68.71;100967.44;1049484;28;971;-72
2021/12/06 00:51:34;;;;;;;;;;;;;;;14.56;68.57;100971.94;1049377;28;746;-72
2021/12/06 00:52:24;;;;;;;;;;;;;;;14.55;68.15;100966.69;1045552;28;662;-72
2021/12/06 00:53:14;;;;;;;;;;;;;;;14.55;68.64;100974.75;1046196;28;665;-71
2021/12/06 00:54:05;;;;;;;;;;;;;;;14.54;68.21;100973.91;1049920;28;833;-72
2021/12/06 00:54:55;;;;;;;;;;;;;;;14.54;67.98;100973.91;1049964;28;783;-72
2021/12/06 00:55:46;;;;;;;;;;;;;;;14.54;68.67;100973.91;1049280;28;808;-73
2021/12/06 00:56:36;;;;;;;;;;;;;;;14.54;68.39;100975.72;1049260;28;1964;-73
2021/12/06 00:57:26;;;;;;;;;;;;;;;14.53;68.60;100976.69;1049494;28;668;-70
2021/12/06 00:58:17;;;;;;;;;;;;;;;14.53;68.41;100982.06;1049420;28;696;-70
2021/12/06 00:59:07;;;;;;;;;;;;;;;14.53;67.85;100982.91;1049341;28;630;-69
2021/12/06 00:59:58;;;;;;;;;;;;;;;14.52;68.16;100981.19;1049395;28;919;-69
2021/12/06 01:00:48;;;;;;;;;;;;;;;14.52;68.37;100983.03;1049479;28;708;-69
2021/12/06 01:01:38;;;;;;;;;;;;;;;14.51;68.62;100979.50;1049332;28;692;-70
2021/12/06 01:02:29;;;;;;;;;;;;;;;14.51;68.15;100986.72;1049419;28;759;-69
2021/12/06 01:03:19;;;;;;;;;;;;;;;14.52;68.38;100986.56;1049211;28;738;-70
2021/12/06 01:04:10;;;;;;;;;;;;;;;14.52;68.60;100985.72;1049345;28;864;-70
2021/12/06 01:05:00;;;;;;;;;;;;;;;14.50;68.20;100979.66;1049269;28;2096;-68
2021/12/06 01:05:51;;;;;;;;;;;;;;;14.50;68.09;100982.31;1049096;28;924;-67
2021/12/06 01:06:41;;;;;;;;;;;;;;;14.50;67.55;100987.69;1049473;28;866;-67
2021/12/06 01:07:32;;;;;;;;;;;;;;;14.51;68.52;100990.22;1049360;28;688;-68
2021/12/06 01:08:22;;;;;;;;;;;;;;;14.48;68.43;100985.13;1049463;28;822;-68
2021/12/06 01:09:12;;;;;;;;;;;;;;;14.49;68.43;100985.97;1049368;28;761;-68
2021/12/06 01:10:03;;;;;;;;;;;;;;;14.48;68.46;100984.28;1049532;28;689;-68
2021/12/06 01:10:53;;;;;;;;;;;;;;;14.47;68.70;100983.41;1052829;28;1228;-68
2021/12/06 01:11:44;;;;;;;;;;;;;;;14.47;67.75;100983.41;1054385;28;602;-68
2021/12/06 01:12:34;;;;;;;;;;;;;;;14.46;68.72;100984.38;1050130;28;894;-68
2021/12/06 01:13:24;;;;;;;;;;;;;;;14.47;68.24;100982.56;1049329;28;785;-68
2021/12/06 01:14:15;;;;;;;;;;;;;;;14.46;67.83;100986.22;1049512;28;677;-68
2021/12/06 01:15:05;;;;;;;;;;;;;;;14.47;68.27;100987.94;1049562;28;657;-67
2021/12/06 01:15:56;;;;;;;;;;;;;;;14.47;68.16;100987.94;1049189;28;630;-68
2021/12/06 01:16:46;;;;;;;;;;;;;;;14.46;68.10;100991.59;1045754;28;715;-67
2021/12/06 01:17:36;;;;;;;;;;;;;;;14.46;68.33;100991.59;1046385;28;684;-68
2021/12/06 01:18:27;;;;;;;;;;;;;;;14.46;67.84;100991.59;1049720;28;751;-68
2021/12/06 01:19:17;;;;;;;;;;;;;;;14.45;67.86;100995.25;1051460;28;679;-67
2021/12/06 01:20:08;;;;;;;;;;;;;;;14.45;68.55;100997.91;1047045;28;632;-67
2021/12/06 01:21:28;;;;;;;;;;;;;;;14.45;68.60;100997.91;1045677;28;1026;-70
2021/12/06 01:22:38;;;;;;;;;;;;;;;14.43;67.86;100986.47;1046406;28;827;-68
2021/12/06 01:23:41;;;;;;;;;;;;;;;14.43;68.01;100997.19;1042192;28;793;-70
2021/12/06 01:24:39;;;;;;;;;;;;;;;14.42;67.74;100990.97;1040977;28;744;-70
2021/12/06 01:25:44;;;;;;;;;;;;;;;14.42;68.43;100990.97;1046323;28;810;-69
2021/12/06 01:27:45;;;;;;;;;;;;;;;14.42;67.84;100995.47;1046260;28;770;-68
2021/12/06 01:29:01;;;;;;;;;;;;;;;14.40;67.56;100998.28;1045654;28;700;-68
2021/12/06 01:39:56;;;;;;;;;;;;;;;14.37;67.95;101008.34;1046140;28;801;-75
2021/12/06 01:40:46;;;;;;;;;;;;;;;14.36;67.71;101012.00;1046185;28;748;-74
2021/12/06 01:41:37;;;;;;;;;;;;;;;14.35;67.98;101011.13;1046245;28;863;-74
2021/12/06 01:42:27;;;;;;;;;;;;;;;14.36;67.83;101012.00;1046348;28;606;-73
2021/12/06 01:43:18;;;;;;;;;;;;;;;14.34;68.12;101017.47;1046341;28;640;-73
2021/12/06 01:44:08;;;;;;;;;;;;;;;14.35;67.64;101021.88;1046302;28;935;-72
2021/12/06 01:44:58;;;;;;;;;;;;;;;14.34;68.05;101009.44;1046149;28;623;-72
2021/12/06 01:45:49;;;;;;;;;;;;;;;14.35;67.75;101013.81;1045619;28;772;-74
2021/12/06 01:46:39;;;;;;;;;;;;;;;14.34;68.51;101014.78;1048602;28;1616;-74
2021/12/06 01:47:30;;;;;;;;;;;;;;;14.34;67.79;101019.31;1049842;28;622;-73
2021/12/06 01:48:20;;;;;;;;;;;;;;;14.33;67.65;101012.25;1049888;28;985;-73
2021/12/06 01:49:11;;;;;;;;;;;;;;;14.33;68.34;101025.66;1049814;28;618;-71
2021/12/06 01:50:01;;;;;;;;;;;;;;;14.34;67.62;101013.94;1045380;28;875;-73
2021/12/06 01:50:51;;;;;;;;;;;;;;;14.33;67.50;101017.63;1045293;28;1445;-75
2021/12/06 01:51:42;;;;;;;;;;;;;;;14.32;67.93;101019.44;1045925;28;840;-74
2021/12/06 01:52:32;;;;;;;;;;;;;;;14.32;67.84;101016.78;1045299;28;856;-75
2021/12/06 01:53:23;;;;;;;;;;;;;;;14.32;68.22;101016.78;1049297;28;642;-74
2021/12/06 01:54:13;;;;;;;;;;;;;;;14.32;68.01;101019.44;1049332;28;857;-74
2021/12/06 01:55:03;;;;;;;;;;;;;;;14.32;68.21;101015.91;1049150;28;662;-74
2021/12/06 01:55:54;;;;;;;;;;;;;;;14.31;68.33;101020.41;1048791;28;1785;-74
2021/12/06 01:56:44;;;;;;;;;;;;;;;14.30;67.64;101021.38;1049254;28;669;-75
2021/12/06 01:57:35;;;;;;;;;;;;;;;14.30;67.85;101024.06;1049069;28;1997;-74
2021/12/06 01:58:25;;;;;;;;;;;;;;;14.31;67.77;101022.25;1049338;28;769;-74
2021/12/06 01:59:16;;;;;;;;;;;;;;;14.30;68.01;101026.75;1049712;28;696;-74
2021/12/06 02:00:06;;;;;;;;;;;;;;;14.30;67.73;101018.72;1049916;28;736;-75
2021/12/06 02:00:56;;;;;;;;;;;;;;;14.29;67.70;101019.69;1045262;28;909;-74
2021/12/06 02:01:47;;;;;;;;;;;;;;;14.29;67.79;101021.50;1045898;28;602;-75
2021/12/06 02:02:37;;;;;;;;;;;;;;;14.29;67.95;101026.88;1049867;28;724;-74
2021/12/06 02:03:28;;;;;;;;;;;;;;;14.28;67.72;101023.34;1045227;28;599;-75
2021/12/06 02:04:18;;;;;;;;;;;;;;;14.29;67.55;101026.88;1045764;28;818;-74
2021/12/06 02:05:08;;;;;;;;;;;;;;;14.28;67.46;101025.16;1050300;28;1279;-75
2021/12/06 02:05:59;;;;;;;;;;;;;;;14.28;67.80;101027.84;1049220;28;1119;-75
2021/12/06 02:06:49;;;;;;;;;;;;;;;14.28;68.01;101025.16;1049235;28;724;-74
2021/12/06 02:07:40;;;;;;;;;;;;;;;14.27;68.07;101020.78;1049094;28;673;-73
2021/12/06 02:08:30;;;;;;;;;;;;;;;14.28;67.72;101025.16;1049244;28;796;-73
2021/12/06 02:09:21;;;;;;;;;;;;;;;14.27;67.68;101031.50;1050215;28;787;-73
2021/12/06 02:10:12;;;;;;;;;;;;;;;14.26;68.20;101030.63;1049726;28;693;-73
2021/12/06 02:11:03;;;;;;;;;;;;;;;14.25;67.31;101027.09;1049690;28;931;-73
2021/12/06 02:11:54;;;;;;;;;;;;;;;14.24;68.12;101033.44;1049685;28;827;-74
2021/12/06 02:12:47;;;;;;;;;;;;;;;14.25;67.86;101031.59;1045236;28;767;-73
2021/12/06 02:13:54;;;;;;;;;;;;;;;14.24;67.59;101035.25;1046421;28;625;-73
2021/12/06 02:14:59;;;;;;;;;;;;;;;14.24;68.28;101030.75;1050181;28;807;-73
2021/12/06 02:15:53;;;;;;;;;;;;;;;14.23;67.52;101036.22;1049601;28;641;-74
2021/12/06 02:16:57;;;;;;;;;;;;;;;14.23;67.98;101039.75;1049716;28;712;-74
2021/12/06 02:17:57;;;;;;;;;;;;;;;14.24;68.13;101029.91;1049638;28;642;-75
2021/12/06 02:18:54;;;;;;;;;;;;;;;14.23;67.63;101034.41;1049690;28;2328;-75
2021/12/06 02:19:46;;;;;;;;;;;;;;;14.22;67.72;101038.06;1049618;28;719;-74
2021/12/06 02:20:44;;;;;;;;;;;;;;;14.22;68.15;101043.41;1049621;28;1352;-74
2021/12/06 02:21:36;;;;;;;;;;;;;;;14.22;67.72;101039.88;1049666;28;961;-74
2021/12/06 02:22:27;;;;;;;;;;;;;;;14.21;68.27;101040.84;1048617;28;712;-76
2021/12/06 02:23:17;;;;;;;;;;;;;;;14.21;67.80;101043.53;1049806;28;640;-75
2021/12/06 02:24:09;;;;;;;;;;;;;;;14.20;67.94;101040.00;1049488;28;1649;-74
2021/12/06 02:25:00;;;;;;;;;;;;;;;14.20;67.83;101047.19;1049127;28;689;-74
2021/12/06 02:25:50;;;;;;;;;;;;;;;14.20;68.26;101048.03;1049066;28;716;-74
2021/12/06 02:26:41;;;;;;;;;;;;;;;14.20;67.45;101045.34;1049004;28;704;-74
2021/12/06 02:27:31;;;;;;;;;;;;;;;14.20;67.83;101039.13;1049150;28;750;-75
2021/12/06 02:28:22;;;;;;;;;;;;;;;14.19;67.53;101043.66;1048989;28;731;-74
2021/12/06 02:29:12;;;;;;;;;;;;;;;14.19;67.60;101043.66;1049251;28;767;-74
2021/12/06 02:30:02;;;;;;;;;;;;;;;14.19;68.25;101040.97;1048892;28;849;-74
2021/12/06 02:30:53;;;;;;;;;;;;;;;14.18;68.09;101041.94;1052913;28;775;-75
2021/12/06 02:31:43;;;;;;;;;;;;;;;14.18;67.60;101038.41;1054083;28;782;-75
2021/12/06 02:32:35;;;;;;;;;;;;;;;14.18;67.52;101041.06;1049666;28;2005;-75
2021/12/06 02:33:25;;;;;;;;;;;;;;;14.18;67.83;101039.25;1049263;28;736;-75
2021/12/06 02:34:15;;;;;;;;;;;;;;;14.18;68.01;101041.06;1048955;28;931;-75
2021/12/06 02:35:06;;;;;;;;;;;;;;;14.17;68.13;101042.91;1049053;28;622;-75
2021/12/06 02:35:56;;;;;;;;;;;;;;;14.16;67.86;101043.88;1048888;28;1010;-75
2021/12/06 02:36:47;;;;;;;;;;;;;;;14.17;68.19;101039.38;1048958;28;629;-75
2021/12/06 02:37:37;;;;;;;;;;;;;;;14.17;67.77;101034.00;1049126;28;780;-75
2021/12/06 02:38:28;;;;;;;;;;;;;;;14.16;67.81;101043.03;1048988;28;792;-75
2021/12/06 02:39:23;;;;;;;;;;;;;;;14.15;67.85;101042.16;1049165;28;837;-75
2021/12/06 02:40:13;;;;;;;;;;;;;;;14.14;67.74;101037.81;1048990;28;931;-74
2021/12/06 02:41:04;;;;;;;;;;;;;;;14.13;67.99;101041.47;1048906;28;615;-72
2021/12/06 02:41:54;;;;;;;;;;;;;;;14.14;67.67;101039.63;1049168;28;657;-71
2021/12/06 02:42:46;;;;;;;;;;;;;;;14.14;67.27;101042.31;1048882;28;782;-72
2021/12/06 02:43:36;;;;;;;;;;;;;;;14.13;67.97;101045.97;1049504;28;771;-70
2021/12/06 02:44:27;;;;;;;;;;;;;;;14.12;67.44;101047.78;1048957;28;889;-71
2021/12/06 02:45:18;;;;;;;;;;;;;;;14.13;67.51;101044.13;1048949;28;704;-71
2021/12/06 02:46:08;;;;;;;;;;;;;;;14.13;67.37;101041.47;1049067;28;622;-71
2021/12/06 02:46:58;;;;;;;;;;;;;;;14.13;67.69;101038.78;1045470;28;714;-71
2021/12/06 02:47:53;;;;;;;;;;;;;;;14.11;67.89;101046.06;1047909;28;1893;-74
2021/12/06 02:48:43;;;;;;;;;;;;;;;14.11;67.22;101046.06;1049285;28;712;-74
2021/12/06 02:49:36;;;;;;;;;;;;;;;14.11;67.66;101040.72;1045162;28;714;-75
2021/12/06 02:50:27;;;;;;;;;;;;;;;14.12;68.07;101046.94;1045744;28;638;-75
2021/12/06 02:51:17;;;;;;;;;;;;;;;14.11;68.20;101046.06;1050244;28;723;-75
2021/12/06 02:52:07;;;;;;;;;;;;;;;14.11;67.98;101048.75;1050263;28;728;-76
2021/12/06 02:52:58;;;;;;;;;;;;;;;14.11;67.52;101045.22;1049106;28;933;-76
2021/12/06 02:53:48;;;;;;;;;;;;;;;14.10;67.27;101039.00;1048973;28;803;-75
2021/12/06 02:54:39;;;;;;;;;;;;;;;14.11;67.31;101043.41;1048879;28;828;-75
2021/12/06 02:55:33;;;;;;;;;;;;;;;14.10;67.63;101039.00;1049094;28;732;-75
2021/12/06 02:56:34;;;;;;;;;;;;;;;14.09;67.21;101039.97;1049595;28;696;-75
2021/12/06 02:57:34;;;;;;;;;;;;;;;14.09;67.48;101041.81;1049593;28;732;-74
2021/12/06 02:59:27;;;;;;;;;;;;;;;14.09;68.13;101041.81;1049447;28;800;-76
2021/12/06 03:00:17;;;;;;;;;;;;;;;14.08;67.93;101040.94;1049626;28;676;-75
2021/12/06 03:01:07;;;;;;;;;;;;;;;14.08;67.94;101040.94;1045002;28;850;-71
2021/12/06 03:01:58;;;;;;;;;;;;;;;14.07;67.46;101033.03;1045784;28;708;-73
2021/12/06 03:02:48;;;;;;;;;;;;;;;14.08;67.49;101042.78;1049485;28;1949;-73
2021/12/06 03:03:39;;;;;;;;;;;;;;;14.07;67.55;101041.91;1048837;28;755;-73
2021/12/06 03:04:29;;;;;;;;;;;;;;;14.06;67.91;101036.66;1048955;28;1978;-73
2021/12/06 03:05:20;;;;;;;;;;;;;;;14.06;67.72;101037.53;1053323;28;894;-72
2021/12/06 03:06:11;;;;;;;;;;;;;;;14.07;67.59;101035.69;1053975;28;801;-72
2021/12/06 03:07:02;;;;;;;;;;;;;;;14.06;68.25;101042.88;1049662;28;700;-73
2021/12/06 03:07:57;;;;;;;;;;;;;;;14.06;67.69;101032.16;1048162;28;646;-73
2021/12/06 03:08:48;;;;;;;;;;;;;;;14.06;67.89;101034.84;1048305;28;622;-73
2021/12/06 03:09:39;;;;;;;;;;;;;;;14.04;67.75;101028.75;1048143;28;902;-73
2021/12/06 03:10:29;;;;;;;;;;;;;;;14.05;67.99;101032.28;1048209;28;1332;-73
2021/12/06 03:11:19;;;;;;;;;;;;;;;14.05;67.58;101033.13;1048073;28;916;-74
2021/12/06 03:12:10;;;;;;;;;;;;;;;14.05;67.86;101029.59;1048390;28;654;-74
2021/12/06 03:13:00;;;;;;;;;;;;;;;14.04;67.34;101030.56;1049272;28;680;-74
2021/12/06 03:13:51;;;;;;;;;;;;;;;14.05;67.84;101032.28;1049393;28;954;-72
2021/12/06 03:14:41;;;;;;;;;;;;;;;14.04;68.08;101034.09;1048973;28;744;-72
2021/12/06 03:15:32;;;;;;;;;;;;;;;14.04;67.73;101036.78;1053190;28;851;-72
2021/12/06 03:16:22;;;;;;;;;;;;;;;14.03;67.97;101035.06;1054029;28;713;-74
2021/12/06 03:17:12;;;;;;;;;;;;;;;14.03;67.92;101037.75;1049770;28;970;-73
2021/12/06 03:18:03;;;;;;;;;;;;;;;14.03;68.34;101036.91;1046931;28;1423;-73
2021/12/06 03:18:53;;;;;;;;;;;;;;;14.03;67.49;101043.13;1049354;28;1973;-74
2021/12/06 03:19:44;;;;;;;;;;;;;;;14.03;67.68;101037.75;1048790;28;693;-74
2021/12/06 03:20:34;;;;;;;;;;;;;;;14.02;68.27;101044.09;1049296;28;1898;-75
2021/12/06 03:21:25;;;;;;;;;;;;;;;14.03;67.38;101040.44;1048921;28;638;-74
2021/12/06 03:22:15;;;;;;;;;;;;;;;14.02;68.00;101049.44;1048928;28;793;-73
2021/12/06 03:23:05;;;;;;;;;;;;;;;14.02;67.47;101040.53;1049105;28;719;-72
2021/12/06 03:23:56;;;;;;;;;;;;;;;14.01;67.20;101044.19;1053890;28;672;-73
2021/12/06 03:24:46;;;;;;;;;;;;;;;14.01;67.11;101045.06;1053682;28;751;-73
2021/12/06 03:25:37;;;;;;;;;;;;;;;14.01;67.51;101044.19;1049590;28;669;-73
2021/12/06 03:26:27;;;;;;;;;;;;;;;13.99;67.94;101047.00;1048986;28;781;-73
2021/12/06 03:27:18;;;;;;;;;;;;;;;14.00;67.81;101040.66;1048917;28;625;-73
2021/12/06 03:28:08;;;;;;;;;;;;;;;13.99;68.09;101047.00;1048812;28;721;-70
2021/12/06 03:28:59;;;;;;;;;;;;;;;13.99;67.89;101046.13;1048736;28;737;-71
2021/12/06 03:29:49;;;;;;;;;;;;;;;14.00;67.08;101047.84;1048750;28;704;-73
2021/12/06 03:30:39;;;;;;;;;;;;;;;14.00;68.23;101053.19;1048921;28;840;-72
2021/12/06 03:31:30;;;;;;;;;;;;;;;13.99;67.98;101048.81;1048780;28;649;-72
2021/12/06 03:32:20;;;;;;;;;;;;;;;13.99;67.38;101056.84;1048881;28;986;-71
2021/12/06 03:33:11;;;;;;;;;;;;;;;13.98;67.61;101052.47;1048759;28;645;-73
2021/12/06 03:34:01;;;;;;;;;;;;;;;13.98;67.90;101050.63;1048865;28;706;-73
2021/12/06 03:34:51;;;;;;;;;;;;;;;13.97;67.85;101042.75;1049204;28;886;-73
2021/12/06 03:35:42;;;;;;;;;;;;;;;13.97;67.43;101048.09;1048733;28;1440;-73
2021/12/06 03:36:32;;;;;;;;;;;;;;;13.96;68.15;101041.88;1048868;28;732;-72
2021/12/06 03:37:23;;;;;;;;;;;;;;;13.96;67.71;101047.25;1048873;28;708;-74
2021/12/06 03:38:13;;;;;;;;;;;;;;;13.97;67.87;101051.63;1049036;28;729;-73
2021/12/06 03:39:04;;;;;;;;;;;;;;;13.95;67.41;101048.22;1048680;28;1885;-73
2021/12/06 03:39:54;;;;;;;;;;;;;;;13.96;67.96;101049.94;1048854;28;627;-73
2021/12/06 03:40:45;;;;;;;;;;;;;;;13.96;67.68;101051.75;1048895;28;797;-74
2021/12/06 03:41:35;;;;;;;;;;;;;;;13.96;67.34;101046.41;1048947;28;633;-74
2021/12/06 03:42:25;;;;;;;;;;;;;;;13.95;67.18;101055.41;1049349;28;743;-73
2021/12/06 03:43:16;;;;;;;;;;;;;;;13.95;67.80;101055.41;1048777;28;645;-72
2021/12/06 03:44:06;;;;;;;;;;;;;;;13.95;67.88;101052.72;1048967;28;756;-72
2021/12/06 03:44:57;;;;;;;;;;;;;;;13.95;67.42;101056.25;1048773;28;844;-73
2021/12/06 03:45:47;;;;;;;;;;;;;;;13.94;67.99;101065.25;1048606;28;1831;-73
2021/12/06 03:46:38;;;;;;;;;;;;;;;13.95;67.97;101055.41;1048558;28;1595;-72
2021/12/06 03:47:28;;;;;;;;;;;;;;;13.94;68.01;101054.53;1049319;28;599;-70
2021/12/06 03:48:18;;;;;;;;;;;;;;;13.94;67.73;101054.53;1049501;28;634;-68
2021/12/06 03:49:09;;;;;;;;;;;;;;;13.94;67.50;101053.69;1049235;28;681;-67
2021/12/06 03:49:59;;;;;;;;;;;;;;;13.93;67.67;101062.69;1049411;28;701;-68
2021/12/06 03:50:50;;;;;;;;;;;;;;;13.93;67.61;101058.19;1049267;28;1476;-68
2021/12/06 03:51:40;;;;;;;;;;;;;;;13.93;68.01;101063.56;1049310;28;665;-68
2021/12/06 03:52:30;;;;;;;;;;;;;;;13.91;67.48;101060.13;1049475;28;753;-68
2021/12/06 03:53:21;;;;;;;;;;;;;;;13.92;67.14;101061.84;1049183;28;993;-68
2021/12/06 03:54:11;;;;;;;;;;;;;;;13.92;67.02;101061.84;1049167;28;1935;-68
2021/12/06 03:55:02;;;;;;;;;;;;;;;13.92;67.54;101061.84;1050043;28;681;-68
2021/12/06 03:55:52;;;;;;;;;;;;;;;13.93;67.10;101063.56;1048649;28;734;-68
2021/12/06 03:56:42;;;;;;;;;;;;;;;13.91;66.98;101065.50;1048875;28;646;-68
2021/12/06 03:57:33;;;;;;;;;;;;;;;13.90;67.60;101058.41;1048628;28;930;-68
2021/12/06 03:58:23;;;;;;;;;;;;;;;13.90;67.02;101063.78;1048828;28;705;-68
2021/12/06 03:59:14;;;;;;;;;;;;;;;13.90;67.72;101059.28;1049137;28;1981;-68
2021/12/06 04:00:04;;;;;;;;;;;;;;;13.90;67.31;101063.78;1049440;28;770;-68
2021/12/06 04:00:55;;;;;;;;;;;;;;;13.89;67.45;101062.06;1049330;28;712;-68
2021/12/06 04:01:47;;;;;;;;;;;;;;;13.89;66.85;101062.06;1048735;28;849;-67
2021/12/06 04:02:37;;;;;;;;;;;;;;;13.89;67.74;101054.88;1049395;28;661;-68
2021/12/06 04:03:28;;;;;;;;;;;;;;;13.89;67.81;101059.38;1048653;28;610;-68
2021/12/06 04:04:18;;;;;;;;;;;;;;;13.88;67.69;101057.69;1049357;28;728;-69
2021/12/06 04:05:08;;;;;;;;;;;;;;;13.87;67.90;101053.28;1049418;28;1231;-69
2021/12/06 04:05:59;;;;;;;;;;;;;;;13.88;67.83;101052.31;1048715;28;1029;-68
2021/12/06 04:06:49;;;;;;;;;;;;;;;13.88;67.19;101049.63;1048818;28;701;-68
2021/12/06 04:07:40;;;;;;;;;;;;;;;13.87;67.60;101058.66;1048599;28;926;-71
2021/12/06 04:08:30;;;;;;;;;;;;;;;13.87;67.75;101050.59;1048719;28;634;-70
2021/12/06 04:09:21;;;;;;;;;;;;;;;13.87;67.83;101045.25;1049271;28;645;-70
2021/12/06 04:10:11;;;;;;;;;;;;;;;13.87;67.49;101040.75;1049243;28;854;-70
2021/12/06 04:11:01;;;;;;;;;;;;;;;13.87;67.79;101043.44;1049361;28;851;-71
2021/12/06 04:11:52;;;;;;;;;;;;;;;13.87;67.38;101048.78;1048654;28;763;-71
2021/12/06 04:12:42;;;;;;;;;;;;;;;13.87;67.22;101055.97;1048748;28;645;-71
2021/12/06 04:13:33;;;;;;;;;;;;;;;13.86;68.16;101040.88;1048640;28;704;-71
2021/12/06 04:14:24;;;;;;;;;;;;;;;13.86;67.17;101043.53;1049067;28;1819;-71
2021/12/06 04:15:14;;;;;;;;;;;;;;;13.85;67.85;101053.41;1053172;28;622;-69
2021/12/06 04:16:06;;;;;;;;;;;;;;;13.86;67.23;101052.44;1050257;28;2040;-71
2021/12/06 04:16:56;;;;;;;;;;;;;;;13.85;67.04;101049.88;1046293;28;641;-71
2021/12/06 04:17:47;;;;;;;;;;;;;;;13.85;67.05;101055.22;1045625;28;665;-71
2021/12/06 04:18:37;;;;;;;;;;;;;;;13.84;67.08;101048.16;1044001;28;798;-72
2021/12/06 04:19:27;;;;;;;;;;;;;;;13.83;67.48;101055.34;1044294;28;626;-72
2021/12/06 04:20:18;;;;;;;;;;;;;;;13.83;67.05;101047.31;1045116;28;822;-72
2021/12/06 04:21:09;;;;;;;;;;;;;;;13.84;67.63;101053.50;1044283;28;634;-72
2021/12/06 04:22:00;;;;;;;;;;;;;;;13.83;67.37;101057.16;1049583;28;721;-73
2021/12/06 04:22:50;;;;;;;;;;;;;;;13.82;66.94;101044.72;1050642;28;664;-73
2021/12/06 04:23:40;;;;;;;;;;;;;;;13.82;67.36;101045.59;1046337;28;672;-72
2021/12/06 04:24:31;;;;;;;;;;;;;;;13.82;67.44;101055.44;1044995;28;803;-70
2021/12/06 04:25:21;;;;;;;;;;;;;;;13.81;67.10;101056.41;1044724;28;638;-70
2021/12/06 04:26:12;;;;;;;;;;;;;;;13.80;67.40;101052.03;1045704;28;645;-71
2021/12/06 04:27:12;;;;;;;;;;;;;;;13.81;67.32;101056.41;1044631;28;653;-70
2021/12/06 04:28:06;;;;;;;;;;;;;;;13.81;67.78;101059.09;1045650;28;753;-71
2021/12/06 04:28:59;;;;;;;;;;;;;;;13.82;67.00;101055.44;1044660;28;772;-70
2021/12/06 04:29:49;;;;;;;;;;;;;;;13.82;66.91;101060.81;1045686;28;692;-71
2021/12/06 04:30:40;;;;;;;;;;;;;;;13.80;66.98;101057.38;1045127;28;841;-72
2021/12/06 04:31:30;;;;;;;;;;;;;;;13.80;67.50;101055.56;1045248;28;713;-70
2021/12/06 04:32:21;;;;;;;;;;;;;;;13.81;67.65;101061.78;1045136;28;673;-71
2021/12/06 04:33:11;;;;;;;;;;;;;;;13.81;67.59;101064.44;1045220;28;734;-70
2021/12/06 04:34:02;;;;;;;;;;;;;;;13.80;67.52;101052.88;1045753;28;693;-70
2021/12/06 04:34:52;;;;;;;;;;;;;;;13.80;67.60;101050.19;1045022;28;848;-72
2021/12/06 04:35:43;;;;;;;;;;;;;;;13.78;67.35;101060.22;1044483;28;1061;-72
2021/12/06 04:36:33;;;;;;;;;;;;;;;13.80;67.10;101054.72;1044522;28;626;-72
2021/12/06 04:37:23;;;;;;;;;;;;;;;13.78;67.11;101052.16;1045146;28;700;-71
2021/12/06 04:38:14;;;;;;;;;;;;;;;13.78;67.79;101059.34;1045177;28;637;-71
2021/12/06 04:39:04;;;;;;;;;;;;;;;13.78;67.27;101054.00;1044462;28;1882;-71
2021/12/06 04:39:55;;;;;;;;;;;;;;;13.77;66.96;101060.31;1045024;28;622;-72
2021/12/06 04:40:45;;;;;;;;;;;;;;;13.78;66.68;101052.16;1045161;28;729;-71
2021/12/06 04:41:35;;;;;;;;;;;;;;;13.78;67.24;101054.84;1049481;28;657;-71
2021/12/06 04:42:26;;;;;;;;;;;;;;;13.78;67.61;101056.66;1054766;28;1830;-71